< < Back
Terminal Aerodrome Forecast


Current Version              Previous Versions:   1  2  3  4  5  6  7  8  9  

Terminal Aerodrome Forecast

767
FTUS42 KCAE 121452 AAA
TAFCAE
TAF AMD
KCAE 121452Z 1215/1312 05007KT P6SM SCT050 BKN120
     FM122000 30005KT P6SM BKN035
     FM130000 27005KT P6SM SCT100=



Latest METAR

706
SAUS80 KWBC 130000 RRA
MTRCAE
METAR KCAE 122356Z 00000KT 10SM CLR 07/00 A3004 RMK AO2 SLP172 T00670000
10111 20061 50004


USA.gov is the U.S. government's official web portal to all federal, state and local government web resources and services.